Time;durP1;ratioP1;P1;durP2;ratioP2;P2;SDS_P1;SDS_P2;PMS_P1;PMS_P2;Temp;Humidity;BMP_temperature;BMP_pressure;BME280_temperature;BME280_humidity;BME280_pressure;Samples;Min_cycle;Max_cycle;Signal;HPM_P1;HPM_P2
2022/03/15 00:01:07;;;;;;;1.33;0.30;;;;;;;4.25;55.24;97105.56;5132765;28;20451;-54
2022/03/15 00:03:35;;;;;;;0.60;0.60;;;;;;;4.24;57.24;97113.66;5132532;28;20431;-53
2022/03/15 00:06:06;;;;;;;0.30;0.20;;;;;;;3.74;56.00;97114.47;5132945;27;20473;-53
2022/03/15 00:08:34;;;;;;;1.80;0.60;;;;;;;3.07;58.20;97114.53;5132408;28;20519;-53
2022/03/15 00:11:05;;;;;;;0.30;0.20;;;;;;;3.16;60.74;97107.44;5132593;28;20509;-53
2022/03/15 00:13:36;;;;;;;0.30;0.20;;;;;;;3.53;57.94;97096.03;5132327;28;20958;-53
2022/03/15 00:16:05;;;;;;;0.30;0.20;;;;;;;3.96;58.85;97110.09;5132548;28;20483;-54
2022/03/15 00:18:34;;;;;;;0.30;0.20;;;;;;;3.96;56.51;97107.47;5132482;27;20496;-54
2022/03/15 00:21:08;;;;;;;0.30;0.20;;;;;;;3.72;56.00;97104.16;5132495;28;20454;-54
2022/03/15 00:23:37;;;;;;;0.30;0.20;;;;;;;3.80;57.12;97119.78;5132716;28;20868;-53
2022/03/15 00:26:11;;;;;;;0.30;0.20;;;;;;;3.98;58.59;97106.28;5132217;28;21066;-54
2022/03/15 00:28:40;;;;;;;0.30;0.20;;;;;;;4.05;59.26;97103.75;5132307;28;21006;-54
2022/03/15 00:31:08;;;;;;;0.30;0.20;;;;;;;3.41;58.22;97102.75;5132765;28;20844;-54
2022/03/15 00:33:38;;;;;;;0.30;0.30;;;;;;;2.58;60.13;97057.56;5132442;28;20426;-54
2022/03/15 00:36:09;;;;;;;0.73;0.70;;;;;;;2.57;66.91;97090.78;5132244;28;20422;-54
2022/03/15 00:38:37;;;;;;;0.30;0.20;;;;;;;3.12;59.39;97091.25;5132554;28;20480;-53
2022/03/15 00:41:06;;;;;;;0.30;0.20;;;;;;;2.86;58.26;96986.09;5132380;27;20438;-54
2022/03/15 00:43:34;;;;;;;1.40;1.40;;;;;;;3.68;59.24;97087.16;5132130;28;20518;-54
2022/03/15 00:46:03;;;;;;;0.30;0.20;;;;;;;2.77;61.88;96937.44;5132339;28;20545;-54
2022/03/15 00:48:31;;;;;;;0.80;0.80;;;;;;;3.31;58.96;97074.19;5132057;28;20434;-54
2022/03/15 00:51:00;;;;;;;0.30;0.20;;;;;;;3.02;60.65;97076.78;5132230;28;20457;-54
2022/03/15 00:53:30;;;;;;;0.30;0.20;;;;;;;3.26;58.76;97071.28;5134645;27;20504;-54
2022/03/15 00:55:58;;;;;;;0.50;0.50;;;;;;;3.28;57.89;97065.84;5135955;27;20450;-54
2022/03/15 00:58:26;;;;;;;0.60;0.60;;;;;;;3.33;56.63;97063.50;5135858;27;20431;-54
2022/03/15 01:00:55;;;;;;;0.30;0.20;;;;;;;3.50;57.63;97068.38;5136120;27;20842;-54
2022/03/15 01:03:23;;;;;;;0.30;0.20;;;;;;;3.69;56.76;97070.41;5135962;27;20422;-54
2022/03/15 01:05:52;;;;;;;0.30;0.20;;;;;;;3.29;56.36;97070.91;5136078;27;20468;-54
2022/03/15 01:08:21;;;;;;;0.30;0.20;;;;;;;3.62;56.22;97080.03;5135533;27;20520;-54
2022/03/15 01:10:51;;;;;;;0.30;0.20;;;;;;;3.68;55.63;97087.16;5135957;27;20514;-54
2022/03/15 01:13:19;;;;;;;0.30;0.20;;;;;;;3.80;56.74;97085.69;5135567;27;20465;-54
2022/03/15 01:15:47;;;;;;;0.30;0.20;;;;;;;3.90;59.04;97089.88;5135907;27;20458;-54
2022/03/15 01:18:17;;;;;;;0.20;0.20;;;;;;;3.58;55.00;97055.19;5135600;27;20419;-54
2022/03/15 01:20:45;;;;;;;0.30;0.20;;;;;;;3.09;56.09;97080.28;5135463;27;20943;-54
2022/03/15 01:23:14;;;;;;;0.30;0.20;;;;;;;2.54;58.42;97039.59;5135511;27;20445;-54
2022/03/15 01:25:42;;;;;;;1.10;1.10;;;;;;;2.41;57.33;96971.34;5135468;27;20820;-54
2022/03/15 01:28:15;;;;;;;0.30;0.30;;;;;;;2.98;57.68;97078.13;5135591;27;20900;-54
2022/03/15 01:30:43;;;;;;;0.30;0.20;;;;;;;3.09;57.16;97085.53;5135005;27;20414;-54
2022/03/15 01:33:12;;;;;;;0.30;0.20;;;;;;;3.38;56.95;97080.31;5135541;27;20431;-54
2022/03/15 01:35:40;;;;;;;0.30;0.20;;;;;;;3.62;56.49;97074.78;5135192;27;20978;-54
2022/03/15 01:38:09;;;;;;;0.30;0.20;;;;;;;3.41;57.02;97074.72;5135203;27;20423;-54
2022/03/15 01:40:38;;;;;;;0.40;0.30;;;;;;;3.29;56.73;97077.97;5135161;27;20471;-54
2022/03/15 01:43:06;;;;;;;0.30;0.20;;;;;;;3.48;58.20;97080.84;5135029;27;21021;-54
2022/03/15 01:45:38;;;;;;;0.30;0.20;;;;;;;3.13;60.43;97076.34;5134352;27;20546;-54
2022/03/15 01:48:09;;;;;;;0.30;0.23;;;;;;;3.03;59.99;97089.72;5135310;27;20423;-54
2022/03/15 01:50:38;;;;;;;0.23;0.20;;;;;;;3.00;58.51;97084.81;5134829;27;20521;-54
2022/03/15 01:53:06;;;;;;;0.20;0.20;;;;;;;2.96;59.23;97080.13;5134589;27;20429;-54
2022/03/15 01:55:35;;;;;;;0.50;0.50;;;;;;;2.39;61.14;97082.41;5134928;27;20434;-54
2022/03/15 01:58:04;;;;;;;0.30;0.20;;;;;;;2.20;65.86;97086.28;5134086;27;20978;-54
2022/03/15 02:00:33;;;;;;;0.30;0.20;;;;;;;1.65;70.83;97088.22;5135021;27;20461;-54
2022/03/15 02:03:03;;;;;;;0.30;0.30;;;;;;;2.17;69.76;97077.97;5134574;27;20456;-54
2022/03/15 02:05:32;;;;;;;0.30;0.30;;;;;;;2.24;64.15;97074.50;5133452;27;20466;-54
2022/03/15 02:08:10;;;;;;;0.30;0.20;;;;;;;2.67;61.71;97074.81;5134237;27;20498;-54
2022/03/15 02:10:38;;;;;;;0.20;0.20;;;;;;;2.78;63.53;97079.63;5134837;27;20501;-54
2022/03/15 02:13:07;;;;;;;0.30;0.20;;;;;;;2.81;72.58;97084.53;5134311;27;20430;-54
2022/03/15 02:15:35;;;;;;;0.93;0.93;;;;;;;2.37;65.35;97085.19;5134455;27;20446;-54
2022/03/15 02:18:06;;;;;;;0.30;0.20;;;;;;;2.68;61.69;97076.44;5134039;27;20427;-54
2022/03/15 02:20:36;;;;;;;0.20;0.20;;;;;;;3.09;63.93;97077.69;5134351;27;20482;-54
2022/03/15 02:23:04;;;;;;;0.30;0.20;;;;;;;2.58;63.24;97088.97;5134220;27;20509;-54
2022/03/15 02:25:33;;;;;;;0.30;0.20;;;;;;;2.47;61.85;97057.00;5134196;27;20510;-54
2022/03/15 02:28:02;;;;;;;0.30;0.20;;;;;;;2.80;59.74;97095.97;5134366;27;20461;-54
2022/03/15 02:30:31;;;;;;;0.20;0.20;;;;;;;2.66;62.28;97091.53;5134361;27;20454;-54
2022/03/15 02:32:59;;;;;;;0.30;0.20;;;;;;;2.98;58.66;97094.66;5133709;27;20475;-54
2022/03/15 02:35:28;;;;;;;0.20;0.20;;;;;;;2.72;58.10;97094.25;5134285;27;20430;-54
2022/03/15 02:37:57;;;;;;;0.20;0.20;;;;;;;2.62;59.72;97100.69;5134184;27;20415;-54
2022/03/15 02:40:26;;;;;;;0.20;0.20;;;;;;;2.29;62.77;97077.41;5134147;27;20427;-54
2022/03/15 02:42:55;;;;;;;0.20;0.20;;;;;;;0.00;64.63;96801.28;5134151;27;20423;-54
2022/03/15 02:45:26;;;;;;;0.20;0.20;;;;;;;2.55;63.63;97096.16;5134077;27;20505;-54
2022/03/15 02:47:56;;;;;;;0.30;0.20;;;;;;;2.33;62.24;97102.22;5133560;27;21004;-54
2022/03/15 02:50:25;;;;;;;0.30;0.20;;;;;;;2.29;61.82;97103.56;5133647;27;20419;-54
2022/03/15 02:52:53;;;;;;;0.30;0.20;;;;;;;2.02;63.27;97117.16;5133920;27;20513;-54
2022/03/15 02:55:25;;;;;;;0.30;0.20;;;;;;;1.55;66.62;97118.97;5133621;27;20687;-54
2022/03/15 02:57:53;;;;;;;0.47;0.47;;;;;;;1.47;68.06;97126.88;5133792;27;20475;-54
2022/03/15 03:00:22;;;;;;;0.30;0.20;;;;;;;1.21;68.36;97121.88;5133324;27;20511;-54
2022/03/15 03:02:51;;;;;;;0.20;0.20;;;;;;;1.14;69.62;97129.53;5133600;27;20499;-54
2022/03/15 03:05:20;;;;;;;0.30;0.20;;;;;;;1.33;69.25;97114.47;5133382;27;20463;-54
2022/03/15 03:07:49;;;;;;;0.30;0.20;;;;;;;1.50;67.72;97108.22;5133011;27;20525;-54
2022/03/15 03:10:18;;;;;;;0.60;0.60;;;;;;;1.48;66.96;97097.13;5132944;27;20427;-54
2022/03/15 03:12:49;;;;;;;0.30;0.30;;;;;;;1.58;65.71;97095.13;5133246;27;21004;-54
2022/03/15 03:15:22;;;;;;;0.30;0.20;;;;;;;1.76;65.00;97095.69;5133000;27;20451;-54
2022/03/15 03:17:51;;;;;;;0.23;0.20;;;;;;;1.62;66.57;97096.44;5133068;27;20915;-54
2022/03/15 03:20:21;;;;;;;0.20;0.20;;;;;;;1.59;65.70;97081.09;5133388;27;20552;-54
2022/03/15 03:22:53;;;;;;;0.20;0.20;;;;;;;1.61;66.38;97093.00;5133135;27;20414;-54
2022/03/15 03:25:21;;;;;;;0.30;0.20;;;;;;;1.34;67.96;97097.84;5132984;27;20487;-54
2022/03/15 03:27:51;;;;;;;0.30;0.20;;;;;;;1.18;69.66;97091.69;5133162;27;20501;-54
2022/03/15 03:30:19;;;;;;;0.50;0.40;;;;;;;1.27;69.92;97087.22;5133310;27;20458;-54
2022/03/15 03:32:48;;;;;;;0.20;0.20;;;;;;;1.10;68.73;97068.19;5132938;27;20510;-54
2022/03/15 03:35:16;;;;;;;1.60;0.93;;;;;;;0.71;73.42;97101.19;5132468;27;20462;-54
2022/03/15 03:37:45;;;;;;;0.77;0.77;;;;;;;0.28;78.06;97109.38;5132906;27;20426;-54
2022/03/15 03:40:13;;;;;;;0.20;0.20;;;;;;;0.12;80.51;97106.72;5133105;27;20431;-54
2022/03/15 03:42:41;;;;;;;0.40;0.33;;;;;;;0.06;81.93;97089.13;5132799;27;20495;-54
2022/03/15 03:45:12;;;;;;;1.27;1.23;;;;;;;0.26;86.56;97111.31;5133099;27;20434;-54
2022/03/15 03:47:40;;;;;;;1.13;0.87;;;;;;;0.03;84.15;97032.13;5133029;27;20454;-54
2022/03/15 03:50:12;;;;;;;0.30;0.20;;;;;;;0.55;83.49;97104.66;5132870;27;20526;-54
2022/03/15 03:52:40;;;;;;;1.63;1.53;;;;;;;0.48;84.65;97102.88;5132764;27;20434;-54
2022/03/15 03:55:09;;;;;;;0.83;0.83;;;;;;;0.55;83.60;97109.88;5132790;27;20440;-54
2022/03/15 03:57:38;;;;;;;0.20;0.20;;;;;;;0.31;86.90;97116.84;5132806;28;20785;-54
2022/03/15 04:00:08;;;;;;;0.30;0.20;;;;;;;0.25;88.09;97115.72;5133852;28;20450;-54
2022/03/15 04:02:37;;;;;;;0.30;0.20;;;;;;;0.47;84.56;97109.06;5132699;28;20500;-54
2022/03/15 04:05:07;;;;;;;1.13;0.60;;;;;;;0.53;82.97;97111.03;5132589;28;20423;-54
2022/03/15 04:07:39;;;;;;;0.20;0.20;;;;;;;0.75;82.01;97105.13;5132329;28;20551;-54
2022/03/15 04:10:08;;;;;;;0.20;0.20;;;;;;;0.80;80.21;97097.63;5132309;28;20517;-54
2022/03/15 04:12:37;;;;;;;2.10;0.70;;;;;;;0.55;82.09;97106.44;5132488;28;20935;-54
2022/03/15 04:15:07;;;;;;;0.20;0.20;;;;;;;0.42;82.37;97104.31;5132721;28;20454;-54
2022/03/15 04:17:35;;;;;;;0.20;0.20;;;;;;;-0.07;81.43;97037.47;5132561;28;20501;-54
2022/03/15 04:20:06;;;;;;;0.63;0.63;;;;;;;0.43;80.40;97099.94;5132455;28;20469;-54
2022/03/15 04:22:34;;;;;;;0.40;0.40;;;;;;;0.53;79.60;97105.81;5132863;28;20448;-54
2022/03/15 04:25:03;;;;;;;0.20;0.20;;;;;;;0.52;78.19;97104.16;5132043;28;20470;-54
2022/03/15 04:27:32;;;;;;;0.20;0.20;;;;;;;0.44;80.43;97098.94;5133324;27;20458;-54
2022/03/15 04:30:00;;;;;;;0.20;0.20;;;;;;;0.54;80.03;97110.03;5136709;27;20846;-54
2022/03/15 04:32:29;;;;;;;0.20;0.20;;;;;;;-0.28;79.80;96975.38;5136281;27;20453;-54
2022/03/15 04:34:57;;;;;;;0.20;0.20;;;;;;;0.63;78.77;97107.25;5136505;27;20870;-54
2022/03/15 04:37:27;;;;;;;4.37;2.10;;;;;;;0.54;79.03;97108.22;5136188;27;20430;-54
2022/03/15 04:39:58;;;;;;;0.20;0.20;;;;;;;0.54;78.17;97108.22;5136242;27;20438;-54
2022/03/15 04:42:27;;;;;;;0.20;0.20;;;;;;;0.56;78.27;97115.88;5136144;27;20419;-54
2022/03/15 04:44:55;;;;;;;0.20;0.20;;;;;;;0.52;78.64;97111.97;5136019;27;20454;-54
2022/03/15 04:47:24;;;;;;;0.30;0.30;;;;;;;0.59;78.85;97120.78;5136175;27;20514;-54
2022/03/15 04:49:52;;;;;;;0.20;0.17;;;;;;;0.66;78.65;97111.31;5135805;27;20455;-54
2022/03/15 04:52:21;;;;;;;0.90;0.90;;;;;;;0.60;79.32;97118.03;5136160;27;20431;-54
2022/03/15 04:54:51;;;;;;;2.40;0.60;;;;;;;0.67;77.67;97118.19;5136066;27;20455;-54
2022/03/15 04:57:19;;;;;;;0.37;0.37;;;;;;;0.70;77.71;97123.06;5136069;27;20517;-54
2022/03/15 04:59:48;;;;;;;0.30;0.20;;;;;;;0.64;78.65;97108.88;5136007;27;20462;-54
2022/03/15 05:02:17;;;;;;;0.20;0.20;;;;;;;-0.03;82.08;97072.66;5135814;27;20867;-53
2022/03/15 05:04:45;;;;;;;0.50;0.50;;;;;;;0.47;80.49;97125.53;5135641;27;20461;-55
2022/03/15 05:07:13;;;;;;;0.20;0.20;;;;;;;0.06;82.45;97131.66;5135328;27;20520;-54
2022/03/15 05:12:26;;;;;;;0.20;0.20;;;;;;;0.46;79.50;97138.72;5136767;27;20440;-54
2022/03/15 05:14:54;;;;;;;0.40;0.40;;;;;;;0.28;81.23;97143.28;5135460;27;20452;-53
2022/03/15 05:17:24;;;;;;;1.17;1.17;;;;;;;0.27;83.09;97152.88;5135085;27;20458;-53
2022/03/15 05:19:52;;;;;;;1.43;1.43;;;;;;;0.24;84.58;97155.81;5135666;27;20461;-53
2022/03/15 05:22:21;;;;;;;2.33;2.20;;;;;;;0.33;83.38;97156.66;5134838;27;20454;-53
2022/03/15 05:24:49;;;;;;;0.33;0.33;;;;;;;-0.02;88.23;97153.28;5135361;27;20914;-54
2022/03/15 05:27:18;;;;;;;0.30;0.30;;;;;;;0.33;85.81;97151.44;5135259;27;20552;-53
2022/03/15 05:29:48;;;;;;;0.20;0.20;;;;;;;0.45;83.33;97147.53;5135133;27;20431;-54
2022/03/15 05:32:16;;;;;;;0.43;0.43;;;;;;;0.83;81.82;97159.94;5134948;27;20455;-54
2022/03/15 05:34:45;;;;;;;0.93;0.93;;;;;;;0.40;85.52;97170.66;5135357;27;20493;-53
2022/03/15 05:37:13;;;;;;;0.30;0.20;;;;;;;0.56;84.21;97162.84;5135547;27;20418;-54
2022/03/15 05:39:42;;;;;;;0.20;0.20;;;;;;;0.92;82.18;97163.34;5134700;27;20462;-54
2022/03/15 05:42:13;;;;;;;0.30;0.23;;;;;;;1.64;78.59;97154.56;5135273;27;20502;-54
2022/03/15 05:44:47;;;;;;;3.40;1.50;;;;;;;1.63;75.04;97160.78;5135080;27;20936;-53
2022/03/15 05:47:16;;;;;;;0.30;0.20;;;;;;;1.46;79.27;97162.63;5135021;27;20878;-53
2022/03/15 05:49:44;;;;;;;1.50;1.50;;;;;;;1.76;73.85;97156.66;5134878;27;20525;-54
2022/03/15 05:52:13;;;;;;;0.60;0.60;;;;;;;1.62;73.81;97165.19;5134615;27;20510;-54
2022/03/15 05:54:41;;;;;;;0.87;0.87;;;;;;;1.55;76.14;97171.25;5134398;27;20451;-53
2022/03/15 05:57:09;;;;;;;0.70;0.70;;;;;;;1.74;75.00;97166.47;5134268;27;20473;-53
2022/03/15 05:59:38;;;;;;;1.70;1.60;;;;;;;2.04;70.52;97171.88;5134738;27;20473;-54
2022/03/15 06:02:08;;;;;;;0.30;0.20;;;;;;;2.36;66.71;97177.75;5134837;27;20427;-54
2022/03/15 06:04:37;;;;;;;0.40;0.40;;;;;;;2.55;65.92;97164.22;5134348;27;20433;-54
2022/03/15 06:07:05;;;;;;;2.00;1.33;;;;;;;2.79;65.00;97163.22;5134217;27;20510;-54
2022/03/15 06:09:35;;;;;;;0.80;0.80;;;;;;;3.19;61.84;97154.22;5133287;27;21034;-54
2022/03/15 06:12:04;;;;;;;1.43;1.33;;;;;;;3.45;59.35;97167.72;5134409;27;20861;-54
2022/03/15 06:14:33;;;;;;;0.67;0.67;;;;;;;4.31;55.06;97157.34;5134194;27;20866;-54
2022/03/15 06:17:01;;;;;;;1.67;1.67;;;;;;;4.89;52.71;97156.31;5134232;27;20448;-54
2022/03/15 06:19:31;;;;;;;1.07;1.07;;;;;;;5.19;50.54;97151.69;5134222;27;20918;-55
2022/03/15 06:21:59;;;;;;;0.70;0.70;;;;;;;5.48;49.04;97146.25;5134288;27;20480;-54
2022/03/15 06:24:28;;;;;;;0.30;0.20;;;;;;;6.06;48.29;97144.16;5134145;27;20473;-54
2022/03/15 06:26:57;;;;;;;1.13;1.03;;;;;;;6.18;47.60;97109.19;5134251;27;20865;-54
2022/03/15 06:29:25;;;;;;;0.67;0.67;;;;;;;6.76;46.77;97133.22;5134046;27;20527;-54
2022/03/15 06:31:54;;;;;;;0.50;0.37;;;;;;;6.59;46.63;97116.16;5134131;27;20422;-54
2022/03/15 06:34:44;;;;;;;1.70;1.70;;;;;;;6.71;45.75;97127.75;5134004;27;20442;-54
2022/03/15 06:37:12;;;;;;;0.40;0.40;;;;;;;7.10;47.02;97125.16;5133910;27;20466;-54
2022/03/15 06:39:41;;;;;;;1.40;1.40;;;;;;;7.05;45.74;97130.22;5134245;27;20430;-53
2022/03/15 06:42:11;;;;;;;0.40;0.40;;;;;;;6.13;47.19;97135.28;5133853;27;20458;-53
2022/03/15 06:44:40;;;;;;;0.70;0.70;;;;;;;5.18;47.52;97123.00;5133571;27;20456;-54
2022/03/15 06:47:11;;;;;;;0.40;0.40;;;;;;;5.06;48.40;97157.66;5133774;27;20517;-53
2022/03/15 06:49:40;;;;;;;1.50;1.47;;;;;;;5.06;48.86;97141.06;5133893;27;20870;-51
2022/03/15 06:52:10;;;;;;;1.80;1.80;;;;;;;5.37;50.44;97153.84;5133389;27;20434;-51
2022/03/15 06:54:38;;;;;;;0.60;0.60;;;;;;;6.45;49.11;97148.78;5133948;27;20431;-51
2022/03/15 06:57:07;;;;;;;4.23;0.60;;;;;;;7.23;47.35;97127.78;5133539;27;20426;-51
2022/03/15 06:59:35;;;;;;;0.60;0.60;;;;;;;7.29;45.62;97141.97;5133564;27;20526;-51
2022/03/15 07:02:05;;;;;;;0.60;0.50;;;;;;;7.34;45.00;97148.25;5133329;27;20426;-51
2022/03/15 07:04:34;;;;;;;1.63;1.03;;;;;;;7.62;44.90;97148.84;5133756;27;20456;-51
2022/03/15 07:07:02;;;;;;;0.50;0.43;;;;;;;7.50;45.58;97137.28;5133367;27;20466;-51
2022/03/15 07:09:32;;;;;;;0.97;0.50;;;;;;;7.84;43.41;97138.03;5133246;27;20513;-51
2022/03/15 07:12:00;;;;;;;0.80;0.77;;;;;;;8.12;42.27;97136.69;5133319;27;20426;-50
2022/03/15 07:14:29;;;;;;;2.73;0.93;;;;;;;8.44;41.69;97139.44;5133034;27;20438;-50
2022/03/15 07:16:57;;;;;;;0.83;0.83;;;;;;;8.94;40.63;97134.06;5133578;27;20427;-50
2022/03/15 07:19:27;;;;;;;0.40;0.40;;;;;;;9.18;40.32;97121.88;5133094;27;20529;-50
2022/03/15 07:21:56;;;;;;;0.50;0.40;;;;;;;10.02;38.27;97121.22;5133141;27;20426;-50
2022/03/15 07:24:24;;;;;;;1.27;1.00;;;;;;;9.42;40.27;97120.22;5133342;27;20422;-50
2022/03/15 07:26:54;;;;;;;2.20;0.80;;;;;;;9.44;40.39;97113.69;5133415;27;20469;-51
2022/03/15 07:29:23;;;;;;;0.40;0.40;;;;;;;9.62;40.38;97126.16;5132816;27;20494;-51
2022/03/15 07:31:52;;;;;;;1.30;1.30;;;;;;;9.75;40.53;97111.97;5132996;27;20513;-52
2022/03/15 07:34:20;;;;;;;0.60;0.50;;;;;;;10.00;39.81;97124.13;5132810;27;20510;-51
2022/03/15 07:36:49;;;;;;;1.03;1.03;;;;;;;9.59;40.83;97122.09;5133002;27;20522;-51
2022/03/15 07:39:17;;;;;;;1.27;0.90;;;;;;;9.05;41.73;97121.97;5133247;27;20891;-52
2022/03/15 07:41:46;;;;;;;0.43;0.40;;;;;;;9.50;40.95;97118.13;5132799;27;20521;-52
2022/03/15 07:44:16;;;;;;;0.60;0.60;;;;;;;9.98;39.73;97114.78;5133115;27;20838;-52
2022/03/15 07:46:48;;;;;;;1.50;1.40;;;;;;;10.38;39.29;97115.13;5132889;27;20455;-53
2022/03/15 07:49:18;;;;;;;0.67;0.67;;;;;;;11.39;37.53;97119.31;5132980;27;20510;-53
2022/03/15 07:51:48;;;;;;;0.50;0.50;;;;;;;12.04;37.92;97114.66;5132121;27;20434;-54
2022/03/15 07:54:17;;;;;;;1.43;1.30;;;;;;;11.72;37.03;97109.97;5132690;27;20456;-55
2022/03/15 07:56:45;;;;;;;0.57;0.57;;;;;;;10.90;37.23;97114.41;5132396;28;20422;-55
2022/03/15 07:59:14;;;;;;;0.53;0.50;;;;;;;11.29;36.54;97108.44;5132533;28;20435;-56
2022/03/15 08:01:44;;;;;;;1.27;1.23;;;;;;;12.09;35.21;97106.00;5132321;27;20501;-56
2022/03/15 08:04:13;;;;;;;1.60;1.03;;;;;;;12.96;33.72;97111.88;5136666;27;20425;-58
2022/03/15 08:06:41;;;;;;;2.00;1.27;;;;;;;11.72;34.51;97110.78;5136447;27;20442;-58
2022/03/15 08:09:10;;;;;;;1.20;1.10;;;;;;;11.87;35.14;97102.34;5137546;27;20794;-57
2022/03/15 08:11:40;;;;;;;1.03;1.03;;;;;;;12.33;33.93;97112.06;5136884;27;20944;-57
2022/03/15 08:14:09;;;;;;;1.40;1.10;;;;;;;12.52;33.08;97106.31;5136743;27;20455;-58
2022/03/15 08:16:38;;;;;;;6.97;2.20;;;;;;;13.87;32.57;97101.63;5136745;27;20487;-57
2022/03/15 08:19:08;;;;;;;12.40;2.73;;;;;;;13.68;31.36;97091.50;5136508;27;20935;-57
2022/03/15 08:21:37;;;;;;;1.43;0.80;;;;;;;13.91;30.60;97093.94;5136523;27;20798;-56
2022/03/15 08:24:06;;;;;;;1.03;0.83;;;;;;;13.74;31.08;97104.63;5136580;27;20450;-56
2022/03/15 08:26:34;;;;;;;1.20;1.10;;;;;;;14.88;28.92;97094.00;5136791;27;20856;-57
2022/03/15 08:29:03;;;;;;;1.07;0.70;;;;;;;14.47;28.77;97092.81;5136308;27;20552;-57
2022/03/15 08:31:31;;;;;;;1.43;1.33;;;;;;;13.90;29.99;97092.34;5136434;27;20517;-57
2022/03/15 08:34:00;;;;;;;1.13;1.03;;;;;;;13.94;30.02;97088.91;5136377;27;20438;-57
2022/03/15 08:36:29;;;;;;;1.80;1.40;;;;;;;15.53;28.24;97061.72;5136568;27;20861;-57
2022/03/15 08:38:58;;;;;;;1.60;0.83;;;;;;;15.30;27.47;97070.88;5136359;27;20419;-57
2022/03/15 08:41:26;;;;;;;0.83;0.83;;;;;;;14.80;28.13;97073.13;5136201;27;20425;-57
2022/03/15 08:43:55;;;;;;;1.33;1.23;;;;;;;15.46;27.80;97058.44;5135861;27;20429;-56
2022/03/15 08:46:23;;;;;;;0.63;0.50;;;;;;;16.15;27.43;97053.72;5135501;27;20517;-55
2022/03/15 08:48:52;;;;;;;2.67;1.63;;;;;;;16.12;27.07;97057.72;5136220;27;20434;-55
2022/03/15 08:51:21;;;;;;;4.00;0.40;;;;;;;16.06;26.18;97056.13;5135902;27;20458;-55
2022/03/15 08:53:50;;;;;;;0.70;0.70;;;;;;;16.39;26.20;97046.88;5134864;27;20469;-55
2022/03/15 08:56:19;;;;;;;1.13;0.70;;;;;;;15.90;25.66;97000.94;5136291;27;20483;-55
2022/03/15 08:58:48;;;;;;;1.53;1.43;;;;;;;17.42;24.36;97050.19;5136263;27;20461;-53
2022/03/15 09:01:16;;;;;;;0.60;0.60;;;;;;;16.77;25.39;97045.63;5135870;27;20903;-53
2022/03/15 09:04:02;;;;;;;1.23;0.40;;;;;;;16.96;24.99;97049.38;5136113;27;20517;-54
2022/03/15 09:06:31;;;;;;;0.50;0.47;;;;;;;17.60;25.55;97031.69;5135636;27;20501;-54
2022/03/15 09:09:01;;;;;;;0.53;0.53;;;;;;;17.63;24.39;97031.13;5135388;27;20430;-55
2022/03/15 09:11:30;;;;;;;3.80;0.93;;;;;;;17.57;24.90;97018.00;5135332;27;20518;-54
2022/03/15 09:13:58;;;;;;;1.13;0.90;;;;;;;17.32;25.19;97018.03;5135168;27;20457;-54
2022/03/15 09:16:27;;;;;;;1.13;1.03;;;;;;;17.77;24.88;97013.41;5135587;27;20466;-55
2022/03/15 09:18:57;;;;;;;0.40;0.20;;;;;;;19.71;24.11;96996.47;5135878;27;20513;-55
2022/03/15 09:21:26;;;;;;;0.40;0.30;;;;;;;20.96;21.11;96997.78;5135576;27;20487;-55
2022/03/15 09:23:57;;;;;;;0.40;0.30;;;;;;;18.96;22.20;97001.47;5135589;27;20509;-54
2022/03/15 09:26:27;;;;;;;1.73;0.90;;;;;;;17.71;23.45;97000.25;5135410;27;20422;-55
2022/03/15 09:28:56;;;;;;;2.43;1.20;;;;;;;18.73;23.91;96990.63;5135171;27;20491;-55
2022/03/15 09:31:24;;;;;;;0.47;0.40;;;;;;;18.73;21.83;96996.00;5135114;27;20890;-55
2022/03/15 09:33:53;;;;;;;1.13;1.10;;;;;;;19.09;21.66;96983.09;5135239;27;20433;-55
2022/03/15 09:36:23;;;;;;;0.40;0.30;;;;;;;19.26;23.30;96992.34;5135584;27;20422;-55
2022/03/15 09:38:51;;;;;;;0.70;0.50;;;;;;;19.41;22.65;96972.59;5135087;27;20465;-55
2022/03/15 09:41:20;;;;;;;0.40;0.30;;;;;;;20.05;21.34;96954.09;5134940;27;20470;-55
2022/03/15 09:43:52;;;;;;;1.17;0.77;;;;;;;19.31;22.19;96965.41;5134995;27;20510;-52
2022/03/15 09:46:22;;;;;;;0.60;0.60;;;;;;;20.46;24.22;96956.25;5134826;27;20484;-52
2022/03/15 09:49:11;;;;;;;0.40;0.33;;;;;;;18.29;25.02;96961.13;5134506;27;20434;-52
2022/03/15 09:51:40;;;;;;;0.87;0.70;;;;;;;19.06;24.09;96954.09;5134577;27;20517;-52
2022/03/15 09:54:08;;;;;;;0.63;0.40;;;;;;;20.04;24.06;96943.59;5134847;27;20415;-53
2022/03/15 09:56:39;;;;;;;0.50;0.50;;;;;;;22.05;21.71;96944.78;5135084;27;20461;-53
2022/03/15 09:59:14;;;;;;;1.30;1.20;;;;;;;21.21;23.39;96944.25;5134523;27;20467;-52
2022/03/15 10:01:43;;;;;;;1.30;1.27;;;;;;;20.32;21.33;96940.00;5134684;27;20424;-52
2022/03/15 10:04:12;;;;;;;22.27;0.97;;;;;;;19.28;23.41;96943.66;5134894;27;20431;-52
2022/03/15 10:06:41;;;;;;;0.70;0.70;;;;;;;20.37;21.97;96928.34;5134655;27;20438;-52
2022/03/15 10:09:11;;;;;;;1.53;0.40;;;;;;;20.21;22.56;96933.16;5134519;27;20504;-52
2022/03/15 10:11:39;;;;;;;3.07;2.20;;;;;;;19.31;23.31;96924.25;5134745;27;20498;-52
2022/03/15 10:14:08;;;;;;;0.47;0.47;;;;;;;19.43;22.39;96927.41;5134462;27;20431;-52
2022/03/15 10:16:40;;;;;;;1.13;0.40;;;;;;;20.87;20.92;96914.09;5134372;27;20449;-52
2022/03/15 10:19:10;;;;;;;0.90;0.90;;;;;;;21.18;21.45;96909.78;5134565;27;20438;-52
2022/03/15 10:21:44;;;;;;;0.40;0.30;;;;;;;21.02;21.67;96902.25;5134440;27;20434;-52
2022/03/15 10:24:17;;;;;;;0.80;0.80;;;;;;;21.89;20.57;96881.41;5134103;27;20971;-53
2022/03/15 10:26:48;;;;;;;0.40;0.40;;;;;;;23.45;18.86;96872.19;5133699;27;20505;-52
2022/03/15 10:29:30;;;;;;;0.40;0.40;;;;;;;22.22;18.77;96874.72;5134022;27;20433;-52
2022/03/15 10:32:03;;;;;;;0.70;0.70;;;;;;;21.90;18.41;96867.63;5134113;27;21009;-52
2022/03/15 10:34:32;;;;;;;0.80;0.80;;;;;;;20.09;19.13;96871.63;5134036;27;20899;-52
2022/03/15 10:37:00;;;;;;;0.50;0.50;;;;;;;20.66;18.74;96864.31;5134034;27;20448;-53
2022/03/15 10:39:29;;;;;;;0.60;0.60;;;;;;;21.00;18.12;96869.41;5133879;27;20533;-52
2022/03/15 10:42:00;;;;;;;0.57;0.57;;;;;;;21.07;17.72;96862.53;5133870;27;20939;-52
2022/03/15 10:44:31;;;;;;;1.13;0.93;;;;;;;19.99;18.95;96863.72;5133824;27;21001;-52
2022/03/15 10:47:04;;;;;;;0.57;0.47;;;;;;;20.89;18.69;96858.00;5133793;27;20794;-52
2022/03/15 10:49:34;;;;;;;0.73;0.50;;;;;;;22.85;18.07;96844.00;5133569;27;20474;-52
2022/03/15 10:52:02;;;;;;;0.60;0.60;;;;;;;22.02;17.39;96842.78;5133625;27;20462;-52
2022/03/15 10:54:31;;;;;;;0.40;0.30;;;;;;;23.70;16.90;96832.75;5133528;27;20475;-52
2022/03/15 10:57:00;;;;;;;6.73;1.57;;;;;;;23.13;18.49;96819.19;5133192;27;20509;-52
2022/03/15 10:59:29;;;;;;;0.50;0.30;;;;;;;24.23;18.06;96818.94;5132780;27;20994;-52
2022/03/15 11:01:58;;;;;;;0.63;0.63;;;;;;;23.87;17.30;96814.63;5133415;27;20799;-52
2022/03/15 11:04:28;;;;;;;0.50;0.50;;;;;;;21.40;18.08;96810.09;5133255;27;20517;-52
2022/03/15 11:06:56;;;;;;;0.50;0.40;;;;;;;20.27;19.75;96802.75;5132586;27;20526;-52
2022/03/15 11:09:26;;;;;;;0.70;0.70;;;;;;;20.52;20.45;96798.81;5133398;27;20499;-52
2022/03/15 11:11:59;;;;;;;0.70;0.60;;;;;;;20.27;19.37;96792.78;5133267;27;20462;-52
2022/03/15 11:14:39;;;;;;;0.70;0.40;;;;;;;21.63;18.54;96785.88;5133322;27;20435;-52
2022/03/15 11:17:10;;;;;;;1.00;0.47;;;;;;;21.50;18.25;96749.72;5133079;27;20422;-52
2022/03/15 11:19:45;;;;;;;0.50;0.40;;;;;;;19.92;19.52;96752.94;5132804;27;20848;-52
2022/03/15 11:22:15;;;;;;;0.60;0.60;;;;;;;20.03;20.09;96754.38;5133353;27;20518;-52
2022/03/15 11:24:59;;;;;;;0.50;0.50;;;;;;;22.13;19.56;96758.53;5133006;27;20538;-52
2022/03/15 11:27:32;;;;;;;0.50;0.50;;;;;;;22.79;18.21;96758.75;5133202;27;20431;-52
2022/03/15 11:30:02;;;;;;;1.47;0.60;;;;;;;23.12;17.92;96757.28;5132880;27;20980;-52
2022/03/15 11:32:32;;;;;;;0.77;0.40;;;;;;;21.99;19.18;96749.69;5133021;27;20474;-52
2022/03/15 11:35:03;;;;;;;0.43;0.43;;;;;;;21.47;20.06;96739.53;5132562;27;20466;-52
2022/03/15 11:37:33;;;;;;;0.40;0.30;;;;;;;21.83;19.53;96664.72;5133047;27;20423;-52
2022/03/15 11:40:04;;;;;;;0.97;0.97;;;;;;;22.71;18.06;96728.69;5133193;27;20827;-52
2022/03/15 11:42:34;;;;;;;0.40;0.40;;;;;;;22.35;18.29;96736.09;5132700;27;20950;-52
2022/03/15 11:45:13;;;;;;;0.60;0.60;;;;;;;23.45;18.51;96728.75;5133037;27;20454;-52
2022/03/15 11:48:09;;;;;;;0.60;0.50;;;;;;;24.65;17.24;96712.34;5132780;27;20864;-52
2022/03/15 11:50:49;;;;;;;0.97;0.40;;;;;;;25.43;16.92;96693.75;5132445;27;20479;-52
2022/03/15 11:53:30;;;;;;;6.13;0.50;;;;;;;25.00;16.62;96702.94;5132450;27;20437;-52